Warning: Javascript must be enabled to use all the features on this page!


Page Loading - Please Wait...

Click to hideNews Bulletins

Peak Streamflow for Idaho

Click to hide state-specific text

USGS 13057155 SNAKE RIVER AB EAGLE ROCK NR IDAHO FALLS ID

Bonneville County, Idaho
Hydrologic Unit Code 17040201
Latitude  43°36'17", Longitude 112°03'31" NAD83
Drainage area 9,533  square miles
Gage datum 4,730 feet above NGVD29
Output formats
Table
Graph
Tab-separated file
peakfq (watstore) format
Reselect output format
Water
Year
Date Gage
Height
(feet)
Stream-
flow
(cfs)
1988 1988-07-27 8.96 9,9706
1989 1989-05-13   15,2001,6
1990 1990-09-19   11,3001,6
1991 1991-06-16   21,5001,6
1992 1992-06-17   12,0001,6
1993 1993-06-09 12.96 21,9006
1994 1994-05-16 10.60 14,9006
1995 1995-05-24 13.07 22,2006
1996 1996-05-19 13.86 24,6006
1997 1997-06-16 18.91 48,6006
1998 1998-05-29 12.74 22,1006
1999 1999-06-02 14.85 30,4006
2000 2000-05-31 10.33 13,7006
2001 2001-05-18   7,3301,6
2002 2002-07-29   8,5601,6
2003 2003-07-28   11,6001,6
2004 2004-05-24   15,7001,6
2005 2005-06-16   12,9001,6
2006 2006-05-03 13.03 23,2006
2007 2007-05-26 9.71 11,8006
2008 2008-06-02 12.45 21,0006
2009 2009-06-24   27,6001,6
2010 2010-06-14 13.59 25,3006
2011 2011-05-28 15.24 32,0006
2012 2012-04-29 10.42 14,0006
2013 2013-05-21 11.14 16,4006
2014 2014-06-09 10.77 15,1006
2015 2015-05-18 11.35 16,8006
2016 2016-06-09 9.80 11,8006
2017 2017-06-16 14.16 27,1006
2018 2018-06-03 13.81 25,7006
2019 2019-04-28 12.64 21,3006
2020 2020-06-07 11.82 18,4006
?
  Peak Streamflow Qualification Codes.